| time (UTC) | temp F | wind direction | speed MPH | gust MPH | rain 1hr in | rain 24hr in | rain mn in | humidity % | barometer mb |
| 20260507052559 | 51 | 0.0 | 3.0 | 0.07 | 0.25 | 0.25 | 24 | 1009.3 | |
| 20260507051555 | 52 | 326 | 0.0 | 4.0 | 0.11 | 0.25 | 0.25 | 25 | 1009.2 |
| 20260507050551 | 52 | 225 | 1.0 | 4.0 | 0.11 | 0.25 | 0.25 | 24 | 1009.1 |
| 20260507045547 | 52 | 246 | 1.0 | 4.0 | 0.09 | 0.24 | 0.24 | 23 | 1009.0 |
| 20260507044544 | 52 | 180 | 0.0 | 2.0 | 0.11 | 0.24 | 0.24 | 20 | 1009.0 |
| 20260507043541 | 52 | 0.0 | 0.0 | 0.07 | 0.20 | 0.20 | 19 | 1008.8 | |
| 20260507042536 | 52 | 0.0 | 1.0 | 0.05 | 0.18 | 0.18 | 17 | 1008.6 | |
| 20260507041533 | 52 | 0.0 | 2.0 | 0.01 | 0.14 | 0.14 | 15 | 1008.5 | |
| 20260507040529 | 52 | 0.0 | 0.0 | 0.01 | 0.14 | 0.14 | 13 | 1008.4 | |
| 20260507035526 | 52 | 0.0 | 0.0 | 0.01 | 0.14 | 0.14 | 11 | 1008.3 | |
| 20260507034522 | 52 | 180 | 0.0 | 4.0 | 0.00 | 0.13 | 0.13 | 10 | 1008.2 |
| 20260507033518 | 52 | 180 | 0.0 | 4.0 | 0.00 | 0.13 | 0.13 | 10 | 1008.2 |
| 20260507032614 | 52 | 0.0 | 1.0 | 0.00 | 0.13 | 0.13 | 10 | 1008.1 | |
| 20260507031610 | 52 | 0.0 | 2.0 | 0.01 | 0.13 | 0.13 | 10 | 1008.0 | |
| 20260507030606 | 52 | 0.0 | 0.0 | 0.02 | 0.13 | 0.13 | 10 | 1007.9 | |
| 20260507025602 | 52 | 225 | 0.0 | 3.0 | 0.04 | 0.13 | 0.13 | 1007.9 | |
| 20260507024559 | 52 | 225 | 0.0 | 4.0 | 0.06 | 0.13 | 0.13 | 1007.8 | |
| 20260507023556 | 52 | 0.0 | 3.0 | 0.07 | 0.13 | 0.13 | 1007.8 | ||
| 20260507022552 | 52 | 235 | 1.0 | 5.0 | 0.08 | 0.13 | 0.13 | 1007.8 | |
| 20260507021548 | 52 | 241 | 2.0 | 8.0 | 0.08 | 0.12 | 0.12 | 1007.6 | |
| 20260507020544 | 53 | 0.0 | 2.0 | 0.09 | 0.11 | 0.11 | 1007.6 | ||
| 20260507015540 | 53 | 225 | 1.0 | 4.0 | 0.08 | 0.09 | 0.09 | 1007.7 | |
| 20260507014536 | 53 | 284 | 2.0 | 8.0 | 0.07 | 0.08 | 0.07 | 1007.6 | |
| 20260507013532 | 53 | 198 | 2.0 | 7.0 | 0.06 | 0.07 | 0.06 | 1007.5 | |
| 20260507012528 | 53 | 315 | 0.0 | 4.0 | 0.05 | 0.06 | 0.05 | 1007.5 | |
| 20260507011524 | 54 | 212 | 1.0 | 4.0 | 0.04 | 0.05 | 0.04 | 1007.5 | |
| 20260507010521 | 54 | 0.0 | 0.0 | 0.01 | 0.02 | 0.01 | 1007.4 | ||
| 20260507005517 | 54 | 204 | 3.0 | 8.0 | 0.01 | 0.02 | 0.01 | 1007.4 | |
| 20260507004614 | 54 | 217 | 2.0 | 6.0 | 0.00 | 0.01 | 0.00 | 1007.4 | |
| 20260507003609 | 55 | 236 | 2.0 | 5.0 | 0.00 | 0.01 | 0.00 | 1007.4 | |
| 20260507002606 | 55 | 0.0 | 3.0 | 0.00 | 0.01 | 0.00 | 1007.4 | ||
| 20260507001603 | 55 | 190 | 1.0 | 5.0 | 0.00 | 0.01 | 0.00 | 1007.3 | |
| 20260507000558 | 55 | 0.0 | 2.0 | 0.00 | 0.01 | 0.00 | 1007.4 | ||
| 20260506235555 | 55 | 242 | 3.0 | 7.0 | 0.00 | 0.01 | 0.00 | 1007.4 | |
| 20260506234551 | 55 | 225 | 2.0 | 7.0 | 0.00 | 0.01 | 0.00 | 1007.3 | |
| 20260506233548 | 56 | 232 | 2.0 | 6.0 | 0.00 | 0.01 | 0.00 | 1007.1 | |
| 20260506232543 | 56 | 214 | 2.0 | 9.0 | 0.00 | 0.01 | 0.00 | 1007.1 | |
| 20260506231539 | 56 | 258 | 3.0 | 6.0 | 0.00 | 0.01 | 0.00 | 1007.2 | |
| 20260506230536 | 56 | 225 | 3.0 | 7.0 | 0.00 | 0.01 | 0.00 | 1007.2 | |
| 20260506225533 | 56 | 229 | 2.0 | 5.0 | 0.00 | 0.01 | 0.00 | 1007.1 | |
| 20260506224529 | 56 | 238 | 3.0 | 6.0 | 0.00 | 0.01 | 0.00 | 1007.1 | |
| 20260506223525 | 56 | 211 | 1.0 | 4.0 | 0.00 | 0.01 | 0.00 | 1007.0 | |
| 20260506222520 | 57 | 216 | 2.0 | 4.0 | 0.00 | 0.01 | 0.00 | 1007.0 | |
| 20260506221517 | 57 | 217 | 2.0 | 5.0 | 0.00 | 0.01 | 0.00 | 1006.8 | |
| 20260506220613 | 57 | 45 | 1.0 | 3.0 | 0.00 | 0.01 | 0.00 | 1006.9 | |
| 20260506215610 | 58 | 238 | 2.0 | 6.0 | 0.00 | 0.01 | 0.01 | 1006.8 | |
| 20260506214606 | 58 | 232 | 2.0 | 7.0 | 0.00 | 0.01 | 0.01 | 1006.7 | |
| 20260506213602 | 58 | 217 | 2.0 | 6.0 | 0.00 | 0.02 | 0.01 | 1006.7 | |
| 20260506212559 | 58 | 226 | 2.0 | 5.0 | 0.00 | 0.02 | 0.01 | 1006.6 | |
| 20260506211555 | 58 | 246 | 1.0 | 5.0 | 0.00 | 0.02 | 0.01 | 1006.6 | |
| 20260506210551 | 58 | 225 | 2.0 | 3.0 | 0.00 | 0.02 | 0.01 | 1006.6 | |
| 20260506205548 | 58 | 248 | 0.0 | 3.0 | 0.00 | 0.02 | 0.01 | 1006.5 | |
| 20260506204543 | 58 | 0.0 | 2.0 | 0.00 | 0.02 | 0.01 | 1006.4 | ||
| 20260506203540 | 59 | 0.0 | 1.0 | 0.00 | 0.02 | 0.01 | 1006.3 | ||
| 20260506202536 | 59 | 0.0 | 0.0 | 0.00 | 0.02 | 0.01 | 1006.3 | ||
| 20260506201532 | 59 | 225 | 0.0 | 3.0 | 0.00 | 0.02 | 0.01 | 1006.4 | |
| 20260506200528 | 60 | 0.0 | 2.0 | 0.00 | 0.02 | 0.01 | 1006.2 | ||
| 20260506195525 | 60 | 203 | 0.0 | 3.0 | 0.00 | 0.02 | 0.01 | 1006.2 | |
| 20260506194521 | 60 | 225 | 1.0 | 4.0 | 0.00 | 0.04 | 0.01 | 1006.1 | |
| 20260506193517 | 60 | 291 | 1.0 | 7.0 | 0.00 | 0.04 | 0.01 | 1006.0 | |
| 20260506192614 | 60 | 237 | 2.0 | 5.0 | 0.00 | 0.04 | 0.01 | 1005.9 | |
| 20260506191609 | 60 | 241 | 1.0 | 8.0 | 0.00 | 0.04 | 0.01 | 1005.8 | |
| 20260506190606 | 60 | 0.0 | 0.0 | 0.00 | 0.04 | 0.01 | 1005.6 | ||
| 20260506185603 | 61 | 0.0 | 0.0 | 0.00 | 0.04 | 0.01 | 1005.5 | ||
| 20260506184559 | 61 | 0.0 | 0.0 | 0.00 | 0.04 | 0.01 | 1005.3 | ||
| 20260506183555 | 62 | 0.0 | 2.0 | 0.00 | 0.04 | 0.01 | 1005.0 | ||
| 20260506182551 | 62 | 0.0 | 0.0 | 0.00 | 0.04 | 0.01 | 1004.9 | ||
| 20260506181547 | 63 | 0.0 | 0.0 | 0.00 | 0.05 | 0.01 | 1004.8 | ||
| 20260506180545 | 63 | 0.0 | 0.0 | 0.00 | 0.05 | 0.01 | 1004.8 | ||
| 20260506175539 | 63 | 0.0 | 1.0 | 0.00 | 0.05 | 0.01 | 1004.7 | ||
| 20260506174536 | 64 | 0.0 | 2.0 | 0.00 | 0.05 | 0.01 | 1004.6 | ||
| 20260506173533 | 64 | 0.0 | 2.0 | 0.00 | 0.06 | 0.01 | 1004.7 | ||
| 20260506172529 | 64 | 0 | 1.0 | 4.0 | 0.00 | 0.07 | 0.01 | 1004.6 | |
| 20260506171525 | 65 | 45 | 0.0 | 3.0 | 0.00 | 0.09 | 0.01 | 1004.4 | |
| 20260506170521 | 65 | 0.0 | 1.0 | 0.00 | 0.18 | 0.01 | 1004.4 | ||
| 20260506165519 | 65 | 270 | 0.0 | 3.0 | 0.00 | 0.22 | 0.01 | 1004.3 | |
| 20260506164614 | 65 | 0.0 | 2.0 | 0.00 | 0.32 | 0.01 | 1004.3 | ||
| 20260506163610 | 66 | 0.0 | 2.0 | 0.00 | 0.33 | 0.01 | 1004.4 | ||
| 20260506162607 | 67 | 275 | 1.0 | 4.0 | 0.00 | 0.33 | 0.01 | 1004.5 | |
| 20260506161603 | 67 | 0.0 | 2.0 | 0.00 | 0.34 | 0.01 | 1004.6 | ||
| 20260506160559 | 67 | 0.0 | 2.0 | 0.00 | 0.34 | 0.01 | 1004.7 | ||
| 20260506155555 | 67 | 225 | 0.0 | 4.0 | 0.00 | 0.34 | 0.01 | 1004.7 | |
| 20260506154552 | 67 | 210 | 0.0 | 4.0 | 0.00 | 0.34 | 0.01 | 1004.7 | |
| 20260506153547 | 67 | 236 | 2.0 | 5.0 | 0.00 | 0.34 | 0.01 | 1004.8 | |
| 20260506152544 | 68 | 228 | 2.0 | 5.0 | 0.00 | 0.34 | 0.01 | 1004.7 | |
| 20260506151541 | 68 | 270 | 0.0 | 3.0 | 0.00 | 0.34 | 0.01 | 1004.6 | |
| 20260506150536 | 68 | 0.0 | 3.0 | 0.00 | 0.34 | 0.01 | 1004.5 | ||
| 20260506145532 | 68 | 242 | 1.0 | 5.0 | 0.00 | 0.34 | 0.01 | 1004.6 | |
| 20260506143525 | 69 | 237 | 0.0 | 3.0 | 0.00 | 0.34 | 0.01 | 1004.6 | |
| 20260506142521 | 69 | 221 | 1.0 | 4.0 | 0.00 | 0.34 | 0.01 | 1004.7 | |
| 20260506141518 | 70 | 179 | 1.0 | 4.0 | 0.00 | 0.34 | 0.01 | 1004.7 | |
| 20260506140615 | 70 | 0.0 | 1.0 | 0.00 | 0.34 | 0.01 | 1004.8 | ||
| 20260506135610 | 69 | 175 | 2.0 | 4.0 | 0.00 | 0.34 | 0.01 | 1004.8 | |
| 20260506134606 | 69 | 150 | 1.0 | 4.0 | 0.00 | 0.34 | 0.01 | 1004.9 | |
| 20260506133603 | 69 | 176 | 1.0 | 4.0 | 0.00 | 0.34 | 0.01 | 1004.8 | |
| 20260506132559 | 69 | 135 | 0.0 | 4.0 | 0.00 | 0.34 | 0.01 | 1004.9 | |
| 20260506131555 | 69 | 171 | 2.0 | 4.0 | 0.00 | 0.34 | 0.01 | 1004.9 | |
| 20260506130551 | 69 | 180 | 2.0 | 5.0 | 0.00 | 0.34 | 0.01 | 1005.0 | |
| 20260506125548 | 70 | 185 | 2.0 | 7.0 | 0.00 | 0.34 | 0.01 | 1004.9 | |
| 20260506124544 | 69 | 229 | 1.0 | 7.0 | 0.00 | 0.34 | 0.01 | 1005.1 | |
| 20260506123540 | 69 | 259 | 1.0 | 5.0 | 0.00 | 0.34 | 0.01 | 1005.1 | |
| 20260506122536 | 70 | 230 | 1.0 | 5.0 | 0.00 | 0.34 | 0.01 | 1005.1 | |
| 20260506121533 | 71 | 170 | 1.0 | 5.0 | 0.00 | 0.34 | 0.01 | 1005.3 | |
| 20260506120528 | 69 | 270 | 2.0 | 3.0 | 0.00 | 0.34 | 0.01 | 1005.4 | |
| 20260506115525 | 69 | 225 | 0.0 | 4.0 | 0.00 | 0.34 | 0.01 | 1005.4 | |
| 20260506114521 | 69 | 193 | 2.0 | 4.0 | 0.00 | 0.34 | 0.01 | 1005.3 | |
| 20260506113518 | 68 | 190 | 2.0 | 6.0 | 0.00 | 0.34 | 0.01 | 1005.4 | |
| 20260506112614 | 67 | 225 | 1.0 | 4.0 | 0.00 | 0.34 | 0.01 | 1005.5 | |
| 20260506111610 | 68 | 232 | 3.0 | 7.0 | 0.00 | 0.34 | 0.01 | 1005.5 | |
| 20260506110607 | 68 | 225 | 2.0 | 4.0 | 0.00 | 0.34 | 0.01 | 1005.5 | |
| 20260506105603 | 69 | 180 | 2.0 | 5.0 | 0.00 | 0.34 | 0.01 | 1005.5 | |
| 20260506104559 | 68 | 204 | 3.0 | 9.0 | 0.00 | 0.34 | 0.01 | 1005.5 | |
| 20260506103556 | 68 | 204 | 3.0 | 6.0 | 0.00 | 0.34 | 0.01 | 1005.6 | |
| 20260506102551 | 68 | 209 | 2.0 | 7.0 | 0.00 | 0.34 | 0.01 | 1005.7 | |
| 20260506101547 | 67 | 226 | 2.0 | 7.0 | 0.00 | 0.34 | 0.01 | 1005.8 | |
| 20260506100544 | 65 | 180 | 2.0 | 4.0 | 0.00 | 0.34 | 0.01 | 1005.7 | |
| 20260506095540 | 66 | 216 | 2.0 | 5.0 | 0.00 | 0.34 | 0.01 | 1005.8 | |
| 20260506094537 | 67 | 219 | 2.0 | 6.0 | 0.00 | 0.34 | 0.01 | 1005.9 | |
| 20260506093533 | 67 | 182 | 2.0 | 6.0 | 0.00 | 0.34 | 0.01 | 1005.9 | |
| 20260506092559 | 66 | 163 | 3.0 | 8.0 | 0.00 | 0.34 | 0.01 | 1006.0 | |
| 20260506091556 | 65 | 220 | 2.0 | 7.0 | 0.00 | 0.34 | 0.01 | 1005.8 | |
| 20260506090552 | 64 | 0 | 2.0 | 4.0 | 0.00 | 0.34 | 0.01 | 1006.0 | |
| 20260506085548 | 64 | 210 | 2.0 | 6.0 | 0.00 | 0.34 | 0.01 | 1006.0 | |
| 20260506084544 | 63 | 238 | 2.0 | 6.0 | 0.00 | 0.34 | 0.01 | 1005.9 | |
| 20260506083540 | 61 | 193 | 1.0 | 8.0 | 0.00 | 0.34 | 0.01 | 1005.6 | |
| 20260506082536 | 63 | 250 | 2.0 | 9.0 | 0.00 | 0.34 | 0.01 | 1005.6 | |
| 20260506081533 | 62 | 205 | 1.0 | 4.0 | 0.00 | 0.34 | 0.01 | 1005.6 | |
| 20260506080529 | 61 | 225 | 2.0 | 4.0 | 0.00 | 0.34 | 0.01 | 1005.6 | |
| 20260506073517 | 61 | 239 | 1.0 | 4.0 | 0.00 | 0.34 | 0.01 | 1005.4 | |
| 20260506072614 | 60 | 224 | 0.0 | 4.0 | 0.00 | 0.34 | 0.01 | 1005.5 | |
| 20260506071611 | 61 | 158 | 3.0 | 7.0 | 0.00 | 0.34 | 0.01 | 1005.5 | |
| 20260506070607 | 59 | 135 | 2.0 | 5.0 | 0.00 | 0.34 | 0.01 | 38 | 1005.5 |
| 20260506061548 | 55 | 139 | 1.0 | 5.0 | 0.00 | 0.34 | 0.01 | 74 | 1005.7 |
| 20260506060545 | 55 | 180 | 3.0 | 6.0 | 0.00 | 0.34 | 0.01 | 80 | 1005.8 |